sensor_id;sensor_type;location;lat;lon;timestamp;P1;durP1;ratioP1;P2;durP2;ratioP2
46757;SDS011;32509;47.750;-3.396;2022-11-09T01:24:09;23.70;;;6.28;;
46757;SDS011;32509;47.750;-3.396;2022-11-09T01:26:35;20.88;;;5.93;;
46757;SDS011;32509;47.750;-3.396;2022-11-09T01:29:01;22.60;;;6.33;;
46757;SDS011;32509;47.750;-3.396;2022-11-09T01:31:27;22.80;;;6.35;;
46757;SDS011;32509;47.750;-3.396;2022-11-09T01:33:53;23.85;;;6.88;;
46757;SDS011;32509;47.750;-3.396;2022-11-09T01:36:20;20.02;;;6.05;;
46757;SDS011;32509;47.750;-3.396;2022-11-09T01:38:47;20.45;;;6.00;;
46757;SDS011;32509;47.750;-3.396;2022-11-09T01:41:15;23.60;;;6.30;;
46757;SDS011;32509;47.750;-3.396;2022-11-09T01:43:42;18.70;;;5.75;;
46757;SDS011;32509;47.750;-3.396;2022-11-09T01:48:40;24.80;;;6.38;;
46757;SDS011;32509;47.750;-3.396;2022-11-09T01:51:08;24.67;;;7.05;;
46757;SDS011;32509;47.750;-3.396;2022-11-09T01:53:37;25.58;;;6.45;;
46757;SDS011;32509;47.750;-3.396;2022-11-09T01:56:05;24.15;;;6.57;;
46757;SDS011;32509;47.750;-3.396;2022-11-09T01:58:35;24.80;;;6.75;;
46757;SDS011;32509;47.750;-3.396;2022-11-09T02:01:02;23.67;;;6.25;;
46757;SDS011;32509;47.750;-3.396;2022-11-09T02:03:36;22.02;;;6.38;;
46757;SDS011;32509;47.750;-3.396;2022-11-09T02:06:03;23.15;;;6.28;;
46757;SDS011;32509;47.750;-3.396;2022-11-09T15:32:10;8.25;;;1.65;;
46757;SDS011;32509;47.750;-3.396;2022-11-09T15:34:39;12.90;;;3.67;;
46757;SDS011;32509;47.750;-3.396;2022-11-09T15:39:50;11.82;;;2.20;;
46757;SDS011;32509;47.750;-3.396;2022-11-09T15:42:17;8.65;;;2.55;;
46757;SDS011;32509;47.750;-3.396;2022-11-09T15:44:43;13.82;;;2.85;;
46757;SDS011;32509;47.750;-3.396;2022-11-09T15:47:52;8.18;;;2.42;;
46757;SDS011;32509;47.750;-3.396;2022-11-09T15:50:09;23.25;;;4.53;;
46757;SDS011;32509;47.750;-3.396;2022-11-09T15:52:35;10.33;;;3.40;;
46757;SDS011;32509;47.750;-3.396;2022-11-09T15:55:01;9.75;;;3.20;;
46757;SDS011;32509;47.750;-3.396;2022-11-09T15:57:28;11.77;;;2.20;;
46757;SDS011;32509;47.750;-3.396;2022-11-09T15:59:54;9.35;;;2.78;;
46757;SDS011;32509;47.750;-3.396;2022-11-09T16:02:20;9.82;;;3.13;;
46757;SDS011;32509;47.750;-3.396;2022-11-09T16:04:46;13.75;;;2.50;;
46757;SDS011;32509;47.750;-3.396;2022-11-09T16:07:13;10.15;;;3.20;;
46757;SDS011;32509;47.750;-3.396;2022-11-09T16:09:39;13.70;;;3.13;;
46757;SDS011;32509;47.750;-3.396;2022-11-09T16:12:06;10.43;;;2.78;;
46757;SDS011;32509;47.750;-3.396;2022-11-09T16:14:32;15.93;;;4.50;;
46757;SDS011;32509;47.750;-3.396;2022-11-09T16:16:58;7.30;;;2.53;;
46757;SDS011;32509;47.750;-3.396;2022-11-09T16:19:24;13.75;;;3.20;;
46757;SDS011;32509;47.750;-3.396;2022-11-09T16:21:51;11.40;;;3.15;;
46757;SDS011;32509;47.750;-3.396;2022-11-09T16:24:17;8.93;;;2.92;;
46757;SDS011;32509;47.750;-3.396;2022-11-09T16:26:43;11.00;;;2.38;;
46757;SDS011;32509;47.750;-3.396;2022-11-09T16:29:10;7.90;;;2.88;;
46757;SDS011;32509;47.750;-3.396;2022-11-09T16:31:36;11.00;;;2.90;;
46757;SDS011;32509;47.750;-3.396;2022-11-09T16:34:02;11.35;;;3.10;;
46757;SDS011;32509;47.750;-3.396;2022-11-09T16:36:28;6.20;;;2.15;;
46757;SDS011;32509;47.750;-3.396;2022-11-09T16:38:55;11.60;;;2.85;;
46757;SDS011;32509;47.750;-3.396;2022-11-09T16:41:22;9.43;;;2.88;;
46757;SDS011;32509;47.750;-3.396;2022-11-09T16:43:49;12.15;;;2.55;;
46757;SDS011;32509;47.750;-3.396;2022-11-09T16:46:19;11.38;;;2.33;;
46757;SDS011;32509;47.750;-3.396;2022-11-09T16:48:45;8.85;;;2.67;;
46757;SDS011;32509;47.750;-3.396;2022-11-09T16:51:11;10.38;;;3.10;;
46757;SDS011;32509;47.750;-3.396;2022-11-09T16:53:37;14.98;;;4.38;;
46757;SDS011;32509;47.750;-3.396;2022-11-09T16:56:04;5.75;;;2.15;;
46757;SDS011;32509;47.750;-3.396;2022-11-09T16:58:30;16.42;;;3.45;;
46757;SDS011;32509;47.750;-3.396;2022-11-09T17:00:56;9.60;;;3.20;;
46757;SDS011;32509;47.750;-3.396;2022-11-09T17:03:22;18.27;;;9.85;;
46757;SDS011;32509;47.750;-3.396;2022-11-09T17:05:48;25.38;;;11.68;;
46757;SDS011;32509;47.750;-3.396;2022-11-09T17:08:14;18.77;;;6.38;;
46757;SDS011;32509;47.750;-3.396;2022-11-09T17:10:41;20.42;;;12.15;;
46757;SDS011;32509;47.750;-3.396;2022-11-09T17:13:07;30.52;;;18.83;;
46757;SDS011;32509;47.750;-3.396;2022-11-09T17:15:44;34.17;;;20.60;;
46757;SDS011;32509;47.750;-3.396;2022-11-09T17:18:11;22.65;;;14.02;;
46757;SDS011;32509;47.750;-3.396;2022-11-09T17:20:41;15.18;;;9.25;;
46757;SDS011;32509;47.750;-3.396;2022-11-09T17:23:07;15.70;;;9.32;;
46757;SDS011;32509;47.750;-3.396;2022-11-09T17:25:33;22.35;;;11.50;;
